createdAt,value
2018-11-21T00:01:50.339Z,18.02
2018-11-21T00:04:19.765Z,12.78
2018-11-21T00:06:49.195Z,14.85
2018-11-21T00:09:18.611Z,17.48
2018-11-21T00:11:48.029Z,17.75
2018-11-21T00:14:17.473Z,18.73
2018-11-21T00:16:46.886Z,15.28
2018-11-21T00:19:16.298Z,15.85
2018-11-21T00:21:45.704Z,17.52
2018-11-21T00:24:15.126Z,19.20
2018-11-21T00:26:44.538Z,18.50
2018-11-21T00:29:13.947Z,15.20
2018-11-21T00:31:43.352Z,16.65
2018-11-21T00:34:12.785Z,16.17
2018-11-21T00:36:42.194Z,18.10
2018-11-21T00:39:12.038Z,17.67
2018-11-21T00:41:41.801Z,20.23
2018-11-21T00:44:11.221Z,17.35
2018-11-21T00:46:40.912Z,16.95
2018-11-21T00:49:10.330Z,16.67
2018-11-21T00:51:39.736Z,14.60
2018-11-21T00:54:09.693Z,19.00
2018-11-21T00:56:39.104Z,18.15
2018-11-21T00:59:08.535Z,15.15
2018-11-21T01:01:37.951Z,16.97
2018-11-21T01:04:07.355Z,16.70
2018-11-21T01:06:36.784Z,18.65
2018-11-21T01:09:07.654Z,23.30
2018-11-21T01:11:37.235Z,20.30
2018-11-21T01:14:06.636Z,20.27
2018-11-21T01:16:36.060Z,18.62
2018-11-21T01:19:05.481Z,16.95
2018-11-21T01:21:34.905Z,17.40
2018-11-21T01:24:04.589Z,19.85
2018-11-21T01:26:33.993Z,11.35
2018-11-21T01:29:03.431Z,22.15
2018-11-21T01:31:32.862Z,13.30
2018-11-21T01:34:02.648Z,16.57
2018-11-21T01:36:32.093Z,16.65
2018-11-21T01:39:01.514Z,23.20
2018-11-21T01:41:30.936Z,14.68
2018-11-21T01:44:00.367Z,20.57
2018-11-21T01:46:29.812Z,19.05
2018-11-21T01:48:59.249Z,21.42
2018-11-21T01:51:28.676Z,22.20
2018-11-21T01:53:58.305Z,14.58
2018-11-21T01:56:27.844Z,22.73
2018-11-21T01:58:57.297Z,22.07
2018-11-21T02:01:26.722Z,17.50
2018-11-21T02:03:56.394Z,13.48
2018-11-21T02:06:25.845Z,15.75
2018-11-21T02:08:55.255Z,19.48
2018-11-21T02:11:24.684Z,15.60
2018-11-21T02:13:54.439Z,17.55
2018-11-21T02:16:23.844Z,17.98
2018-11-21T02:18:53.261Z,20.17
2018-11-21T02:21:22.687Z,18.75
2018-11-21T02:23:52.401Z,20.65
2018-11-21T02:26:21.805Z,16.67
2018-11-21T02:28:51.204Z,17.57
2018-11-21T02:31:20.620Z,18.42
2018-11-21T02:33:50.040Z,18.77
2018-11-21T02:36:19.471Z,19.30
2018-11-21T02:38:48.895Z,20.37
2018-11-21T02:41:18.315Z,16.40
2018-11-21T02:43:47.737Z,18.75
2018-11-21T02:46:17.186Z,18.62
2018-11-21T02:48:46.625Z,17.73
2018-11-21T02:51:16.030Z,22.13
2018-11-21T02:53:45.435Z,16.60
2018-11-21T02:56:14.869Z,15.85
2018-11-21T02:58:44.281Z,21.02
2018-11-21T03:03:43.112Z,14.95
2018-11-21T03:06:12.527Z,19.32
2018-11-21T03:08:41.982Z,13.38
2018-11-21T03:11:11.396Z,16.07
2018-11-21T03:13:41.132Z,16.37
2018-11-21T03:16:10.540Z,23.35
2018-11-21T03:18:39.974Z,19.62
2018-11-21T03:21:09.374Z,18.48
2018-11-21T03:23:38.790Z,13.68
2018-11-21T03:26:08.226Z,22.45
2018-11-21T03:28:37.621Z,19.90
2018-11-21T03:31:07.317Z,19.32
2018-11-21T03:33:36.736Z,21.25
2018-11-21T03:36:06.153Z,21.52
2018-11-21T03:38:35.579Z,21.57
2018-11-21T03:41:04.996Z,20.45
2018-11-21T03:43:34.402Z,16.48
2018-11-21T03:46:03.828Z,19.12
2018-11-21T03:48:33.277Z,17.45
2018-11-21T03:51:02.673Z,19.27
2018-11-21T03:53:32.113Z,17.92
2018-11-21T03:56:01.515Z,21.17
2018-11-21T03:58:31.211Z,18.80
2018-11-21T04:01:00.650Z,13.20
2018-11-21T04:03:30.099Z,18.92
2018-11-21T04:05:59.536Z,16.62
2018-11-21T04:08:28.968Z,19.57
2018-11-21T04:10:58.400Z,23.35
2018-11-21T04:13:27.824Z,15.83
2018-11-21T04:15:57.244Z,15.72
2018-11-21T04:18:26.671Z,24.75
2018-11-21T04:20:56.252Z,20.05
2018-11-21T04:23:25.667Z,23.10
2018-11-21T04:25:55.109Z,22.25
2018-11-21T04:28:24.532Z,21.77
2018-11-21T04:30:53.964Z,22.22
2018-11-21T04:33:23.378Z,16.80
2018-11-21T04:35:52.845Z,19.67
2018-11-21T04:38:22.271Z,18.90
2018-11-21T04:40:51.675Z,13.68
2018-11-21T04:43:21.095Z,21.93
2018-11-21T04:45:50.517Z,14.30
2018-11-21T04:48:19.915Z,21.97
2018-11-21T04:50:49.350Z,21.05
2018-11-21T04:53:19.317Z,22.90
2018-11-21T04:55:48.733Z,21.95
2018-11-21T04:58:18.141Z,21.90
2018-11-21T05:00:47.584Z,24.77
2018-11-21T05:03:16.986Z,19.00
2018-11-21T05:05:46.386Z,15.48
2018-11-21T05:08:16.099Z,18.32
2018-11-21T05:10:45.492Z,23.27
2018-11-21T05:13:14.923Z,21.52
2018-11-21T05:15:44.330Z,22.85
2018-11-21T05:18:13.740Z,19.02
2018-11-21T05:20:43.146Z,17.50
2018-11-21T05:23:12.542Z,20.82
2018-11-21T05:25:41.954Z,19.27
2018-11-21T05:28:11.345Z,23.25
2018-11-21T05:30:40.845Z,22.52
2018-11-21T05:33:10.257Z,18.65
2018-11-21T05:35:39.667Z,19.90
2018-11-21T05:38:09.087Z,21.93
2018-11-21T05:40:38.497Z,20.35
2018-11-21T05:43:07.938Z,18.87
2018-11-21T05:45:37.338Z,12.93
2018-11-21T05:48:07.139Z,19.57
2018-11-21T05:50:36.665Z,21.20
2018-11-21T05:53:06.108Z,19.20
2018-11-21T05:55:35.818Z,18.42
2018-11-21T05:58:05.364Z,21.17
2018-11-21T06:00:34.773Z,17.90
2018-11-21T06:03:04.209Z,17.35
2018-11-21T06:05:33.617Z,24.10
2018-11-21T06:08:03.041Z,21.65
2018-11-21T06:10:32.485Z,23.67
2018-11-21T06:13:01.945Z,20.55
2018-11-21T06:15:31.374Z,22.60
2018-11-21T06:18:00.797Z,17.85
2018-11-21T06:20:30.199Z,22.50
2018-11-21T06:22:59.636Z,22.45
2018-11-21T06:25:29.060Z,18.40
2018-11-21T06:27:58.749Z,20.85
2018-11-21T06:30:28.172Z,22.98
2018-11-21T06:32:57.600Z,26.57
2018-11-21T06:35:27.062Z,22.20
2018-11-21T06:37:56.463Z,21.57
2018-11-21T06:40:25.902Z,18.95
2018-11-21T06:42:59.024Z,21.95
2018-11-21T06:45:29.344Z,16.48
2018-11-21T06:47:58.774Z,22.58
2018-11-21T06:50:28.189Z,21.90
2018-11-21T06:52:58.596Z,22.00
2018-11-21T06:55:28.182Z,23.18
2018-11-21T06:57:57.868Z,19.07
2018-11-21T07:00:27.296Z,21.60
2018-11-21T07:02:56.702Z,18.50
2018-11-21T07:05:26.225Z,20.75
2018-11-21T07:07:55.654Z,17.50
2018-11-21T07:10:25.056Z,20.25
2018-11-21T07:12:54.519Z,21.50
2018-11-21T07:15:23.965Z,22.67
2018-11-21T07:17:53.372Z,22.98
2018-11-21T07:20:22.791Z,20.12
2018-11-21T07:22:52.186Z,17.15
2018-11-21T07:25:22.939Z,22.85
2018-11-21T07:27:52.413Z,23.47
2018-11-21T07:30:21.908Z,22.85
2018-11-21T07:32:51.389Z,24.18
2018-11-21T07:35:20.830Z,20.50
2018-11-21T07:37:50.230Z,19.57
2018-11-21T07:40:19.650Z,23.77
2018-11-21T07:42:49.051Z,23.45
2018-11-21T07:45:18.478Z,22.35
2018-11-21T07:47:47.915Z,20.60
2018-11-21T07:50:18.888Z,23.20
2018-11-21T07:52:48.320Z,23.83
2018-11-21T07:55:17.757Z,23.47
2018-11-21T07:57:51.376Z,25.95
2018-11-21T08:00:56.658Z,21.62
2018-11-21T08:03:27.623Z,21.45
2018-11-21T08:05:59.770Z,24.82
2018-11-21T08:08:40.987Z,24.52
2018-11-21T08:11:29.294Z,25.00
2018-11-21T08:14:22.234Z,21.48
2018-11-21T08:17:19.206Z,22.35
2018-11-21T08:20:10.245Z,24.23
2018-11-21T08:22:56.887Z,22.80
2018-11-21T08:25:54.276Z,23.25
2018-11-21T08:28:29.275Z,23.42
2018-11-21T08:30:58.741Z,24.05
2018-11-21T08:33:33.869Z,24.55
2018-11-21T08:35:58.345Z,22.82
2018-11-21T08:38:27.748Z,22.02
2018-11-21T08:40:57.208Z,20.02
2018-11-21T08:43:26.923Z,21.62
2018-11-21T08:45:56.330Z,21.90
2018-11-21T08:48:25.934Z,24.67
2018-11-21T08:50:55.376Z,19.52
2018-11-21T08:53:25.066Z,23.57
2018-11-21T08:55:54.496Z,25.20
2018-11-21T08:58:23.942Z,21.80
2018-11-21T09:00:53.370Z,22.70
2018-11-21T09:03:22.749Z,20.77
2018-11-21T09:05:52.173Z,22.48
2018-11-21T09:08:21.596Z,21.70
2018-11-21T09:10:51.064Z,25.02
2018-11-21T09:13:20.480Z,21.73
2018-11-21T09:15:49.911Z,23.32
2018-11-21T09:18:19.335Z,24.32
2018-11-21T09:20:48.758Z,23.87
2018-11-21T09:23:18.210Z,20.68
2018-11-21T09:25:47.907Z,22.32
2018-11-21T09:28:17.309Z,22.73
2018-11-21T09:30:46.755Z,22.60
2018-11-21T09:33:16.200Z,21.27
2018-11-21T09:35:45.678Z,21.90
2018-11-21T09:38:15.113Z,23.27
2018-11-21T09:40:44.550Z,24.45
2018-11-21T09:43:13.964Z,23.67
2018-11-21T09:45:43.372Z,20.48
2018-11-21T09:48:13.254Z,22.45
2018-11-21T09:50:42.680Z,24.50
2018-11-21T09:53:12.088Z,22.25
2018-11-21T09:55:41.521Z,21.85
2018-11-21T09:58:10.940Z,21.52
2018-11-21T10:01:15.890Z,19.60
2018-11-21T10:03:45.293Z,21.00
2018-11-21T10:06:17.338Z,13.45
2018-11-21T10:08:50.942Z,17.80
2018-11-21T10:11:20.639Z,12.95
2018-11-21T10:13:50.074Z,22.48
2018-11-21T10:16:19.507Z,24.37
2018-11-21T10:18:50.582Z,22.45
2018-11-21T10:21:21.552Z,17.87
2018-11-21T10:23:50.963Z,20.92
2018-11-21T10:26:20.360Z,20.10
2018-11-21T10:28:50.525Z,22.45
2018-11-21T10:31:19.935Z,21.07
2018-11-21T10:33:49.392Z,18.75
2018-11-21T10:36:18.815Z,19.62
2018-11-21T10:38:48.229Z,19.92
2018-11-21T10:41:17.692Z,23.70
2018-11-21T10:43:47.166Z,16.42
2018-11-21T10:46:16.582Z,22.13
2018-11-21T10:48:46.009Z,18.77
2018-11-21T10:51:15.425Z,20.32
2018-11-21T10:53:44.860Z,19.85
2018-11-21T10:56:14.389Z,20.08
2018-11-21T10:58:44.109Z,22.65
2018-11-21T11:01:47.257Z,23.75
2018-11-21T11:04:22.599Z,20.23
2018-11-21T11:07:09.642Z,19.12
2018-11-21T11:10:00.731Z,20.97
2018-11-21T11:12:48.938Z,20.65
2018-11-21T11:15:52.168Z,20.50
2018-11-21T11:18:37.743Z,21.50
2018-11-21T11:21:24.829Z,21.05
2018-11-21T11:24:18.967Z,20.77
2018-11-21T11:27:08.033Z,21.75
2018-11-21T11:29:52.376Z,20.62
2018-11-21T11:32:46.317Z,21.30
2018-11-21T11:35:43.262Z,20.97
2018-11-21T11:38:46.799Z,21.12
2018-11-21T11:41:35.006Z,20.02
2018-11-21T11:44:29.321Z,21.97
2018-11-21T11:47:15.708Z,21.48
2018-11-21T11:50:13.542Z,20.92
2018-11-21T11:53:04.672Z,21.62
2018-11-21T11:55:57.808Z,20.02
2018-11-21T11:58:52.115Z,21.57
2018-11-21T12:01:31.986Z,21.50
2018-11-21T12:04:15.400Z,19.48
2018-11-21T12:06:56.569Z,20.10
2018-11-21T12:09:43.034Z,21.97
2018-11-21T12:12:29.705Z,20.27
2018-11-21T12:15:16.386Z,19.60
2018-11-21T12:18:09.739Z,21.97
2018-11-21T12:20:57.345Z,22.85
2018-11-21T12:23:44.121Z,21.87
2018-11-21T12:26:47.126Z,22.70
2018-11-21T12:29:33.957Z,22.98
2018-11-21T12:32:21.031Z,17.20
2018-11-21T12:35:14.801Z,20.37
2018-11-21T12:38:02.990Z,19.27
2018-11-21T12:40:42.868Z,14.23
2018-11-21T12:43:44.095Z,15.83
2018-11-21T12:46:35.053Z,20.37
2018-11-21T12:49:27.256Z,20.95
2018-11-21T12:52:25.368Z,20.50
2018-11-21T12:55:22.693Z,21.75
2018-11-21T12:58:09.113Z,19.62
2018-11-21T13:00:59.904Z,18.67
2018-11-21T13:04:05.803Z,20.25
2018-11-21T13:07:02.901Z,19.17
2018-11-21T13:09:52.892Z,22.50
2018-11-21T13:12:35.960Z,18.82
2018-11-21T13:15:17.638Z,21.77
2018-11-21T13:18:20.653Z,21.93
2018-11-21T13:21:07.528Z,22.13
2018-11-21T13:23:49.857Z,18.80
2018-11-21T13:26:40.587Z,19.10
2018-11-21T13:29:18.310Z,19.90
2018-11-21T13:32:04.032Z,20.75
2018-11-21T13:34:46.985Z,21.60
2018-11-21T13:37:53.226Z,20.45
2018-11-21T13:40:53.158Z,22.02
2018-11-21T13:43:39.935Z,20.75
2018-11-21T13:46:26.509Z,14.75
2018-11-21T13:49:16.242Z,22.30
2018-11-21T13:52:03.091Z,20.23
2018-11-21T13:54:50.927Z,22.32
2018-11-21T13:57:21.053Z,20.05
2018-11-21T13:59:50.720Z,21.27
2018-11-21T14:02:20.136Z,20.25
2018-11-21T14:04:49.685Z,20.35
2018-11-21T14:07:19.128Z,21.33
2018-11-21T14:09:48.529Z,20.90
2018-11-21T14:12:17.956Z,23.65
2018-11-21T14:14:47.618Z,21.62
2018-11-21T14:17:17.039Z,18.82
2018-11-21T14:19:46.457Z,22.80
2018-11-21T14:22:15.870Z,20.43
2018-11-21T14:24:45.303Z,23.30
2018-11-21T14:27:14.728Z,18.98
2018-11-21T14:29:44.139Z,21.75
2018-11-21T14:32:16.592Z,20.30
2018-11-21T14:34:46.001Z,21.27
2018-11-21T14:37:15.406Z,22.50
2018-11-21T14:39:44.811Z,25.70
2018-11-21T14:42:14.240Z,24.50
2018-11-21T14:44:43.736Z,24.65
2018-11-21T14:47:13.641Z,24.05
2018-11-21T14:49:43.360Z,22.93
2018-11-21T14:52:12.797Z,26.70
2018-11-21T14:54:42.262Z,25.48
2018-11-21T14:57:11.689Z,25.45
2018-11-21T14:59:41.116Z,24.05
2018-11-21T15:02:10.131Z,23.73
2018-11-21T15:04:39.540Z,22.87
2018-11-21T15:07:08.953Z,24.65
2018-11-21T15:09:38.378Z,23.10
2018-11-21T15:12:08.346Z,25.57
2018-11-21T15:14:37.754Z,24.43
2018-11-21T15:17:07.233Z,26.12
2018-11-21T15:19:36.051Z,23.10
2018-11-21T15:22:04.869Z,25.43
2018-11-21T15:24:33.681Z,24.37
2018-11-21T15:27:02.487Z,24.32
2018-11-21T15:29:31.982Z,27.73
2018-11-21T15:32:00.767Z,30.45
2018-11-21T15:34:30.186Z,28.57
2018-11-21T15:36:58.976Z,28.07
2018-11-21T15:39:28.405Z,28.75
2018-11-21T15:41:57.893Z,29.05
2018-11-21T15:44:26.655Z,29.05
2018-11-21T15:46:55.715Z,28.25
2018-11-21T15:49:24.936Z,30.50
2018-11-21T15:52:01.366Z,27.75
2018-11-21T15:54:23.769Z,28.65
2018-11-21T15:56:52.559Z,27.93
2018-11-21T15:59:21.997Z,29.20
2018-11-21T16:01:50.761Z,29.85
2018-11-21T16:04:20.230Z,30.57
2018-11-21T16:06:49.969Z,30.50
2018-11-21T16:09:19.389Z,31.23
2018-11-21T16:11:48.837Z,33.88
2018-11-21T16:14:17.783Z,32.65
2018-11-21T16:16:46.873Z,32.25
2018-11-21T16:19:16.298Z,30.10
2018-11-21T16:21:45.744Z,31.33
2018-11-21T16:24:15.165Z,32.00
